Tadley, United Kingdom
Current Conditions -  °F | °C
As of 12:50 AM on Sunday 26 Oct 2014 (Local Time) from EGVO Reporting Station
Broken Clouds Broken Clouds  
Wind Chill: 54°   Ceiling: 3300
Heat Index: 54°   Visibility: 6mi
Dew Point: 46°   Wind: 9mph
Humidity: 77%   Direction: 210°SSW
Pressure: 30.15"   Gusts: NA
Location:  51.35°N, 1.13°W
Report Text: EGVO 252350Z 21008KT 9999 BKN033 12/08 Q1021 BLU
Loading
Personal Weather Stations






























Interactive Weather Map
Tropical Storm Tracking
New forecast layout! Learn more

10-Day Weather Forecast

Advertisements
Track Severe Weather on mobile